sensor_id;sensor_type;location;lat;lon;timestamp;pressure;altitude;pressure_sealevel;temperature;humidity
7930;BME280;4010;42.698;23.124;2023-04-15T00:00:07;118349.16;;;-140.64;90.10
7930;BME280;4010;42.698;23.124;2023-04-15T00:02:34;118349.16;;;-140.64;89.99
7930;BME280;4010;42.698;23.124;2023-04-15T00:05:01;118349.16;;;-140.64;90.61
7930;BME280;4010;42.698;23.124;2023-04-15T00:07:29;118349.16;;;-140.64;91.50
7930;BME280;4010;42.698;23.124;2023-04-15T00:09:56;118349.16;;;-140.64;92.98
7930;BME280;4010;42.698;23.124;2023-04-15T00:12:22;118349.16;;;-140.64;93.13
7930;BME280;4010;42.698;23.124;2023-04-15T00:14:49;118349.16;;;-140.64;94.15
7930;BME280;4010;42.698;23.124;2023-04-15T00:17:16;118349.16;;;-140.64;92.39
7930;BME280;4010;42.698;23.124;2023-04-15T00:19:43;118349.16;;;-140.64;91.33
7930;BME280;4010;42.698;23.124;2023-04-15T00:22:10;118349.16;;;-140.64;92.17
7930;BME280;4010;42.698;23.124;2023-04-15T00:24:38;118349.16;;;-140.64;91.81
7930;BME280;4010;42.698;23.124;2023-04-15T00:27:05;118349.16;;;-140.64;92.18
7930;BME280;4010;42.698;23.124;2023-04-15T00:29:32;118349.16;;;-140.64;92.57
7930;BME280;4010;42.698;23.124;2023-04-15T00:31:59;118349.16;;;-140.64;94.49
7930;BME280;4010;42.698;23.124;2023-04-15T00:34:27;118349.16;;;-140.64;96.09
7930;BME280;4010;42.698;23.124;2023-04-15T00:36:54;118349.16;;;-140.64;94.74
7930;BME280;4010;42.698;23.124;2023-04-15T00:39:21;118349.16;;;-140.64;94.66
7930;BME280;4010;42.698;23.124;2023-04-15T00:41:49;118349.16;;;-140.64;95.57
7930;BME280;4010;42.698;23.124;2023-04-15T00:44:16;118349.16;;;-140.64;96.12
7930;BME280;4010;42.698;23.124;2023-04-15T00:46:44;118349.16;;;-140.64;96.86
7930;BME280;4010;42.698;23.124;2023-04-15T00:49:12;118349.16;;;-140.64;96.83
7930;BME280;4010;42.698;23.124;2023-04-15T00:51:39;118349.16;;;-140.64;97.56
7930;BME280;4010;42.698;23.124;2023-04-15T00:54:05;118349.16;;;-140.64;98.90
7930;BME280;4010;42.698;23.124;2023-04-15T00:56:34;118349.16;;;-140.64;99.32
7930;BME280;4010;42.698;23.124;2023-04-15T00:59:03;118349.16;;;-140.64;99.81
7930;BME280;4010;42.698;23.124;2023-04-15T01:01:33;118349.16;;;-140.64;100.00
7930;BME280;4010;42.698;23.124;2023-04-15T01:04:00;118349.16;;;-140.64;100.00
7930;BME280;4010;42.698;23.124;2023-04-15T01:06:27;118349.16;;;-140.64;100.00
7930;BME280;4010;42.698;23.124;2023-04-15T01:08:54;118349.16;;;-140.64;100.00
7930;BME280;4010;42.698;23.124;2023-04-15T01:11:22;118349.16;;;-140.64;100.00
7930;BME280;4010;42.698;23.124;2023-04-15T01:13:50;118349.16;;;-140.64;100.00
7930;BME280;4010;42.698;23.124;2023-04-15T01:16:19;118349.16;;;-140.64;100.00
7930;BME280;4010;42.698;23.124;2023-04-15T01:18:45;118349.16;;;-140.64;100.00
7930;BME280;4010;42.698;23.124;2023-04-15T01:21:12;118349.16;;;-140.64;100.00
7930;BME280;4010;42.698;23.124;2023-04-15T01:23:39;118349.16;;;-140.64;100.00
7930;BME280;4010;42.698;23.124;2023-04-15T01:26:07;118349.16;;;-140.64;100.00
7930;BME280;4010;42.698;23.124;2023-04-15T01:28:34;118349.16;;;-140.64;100.00
7930;BME280;4010;42.698;23.124;2023-04-15T01:31:05;118349.16;;;-140.64;100.00
7930;BME280;4010;42.698;23.124;2023-04-15T01:33:33;118349.16;;;-140.64;100.00
7930;BME280;4010;42.698;23.124;2023-04-15T01:35:59;118349.16;;;-140.64;100.00
7930;BME280;4010;42.698;23.124;2023-04-15T01:38:27;118349.16;;;-140.64;100.00
7930;BME280;4010;42.698;23.124;2023-04-15T01:40:55;118349.16;;;-140.64;100.00
7930;BME280;4010;42.698;23.124;2023-04-15T01:43:23;118349.16;;;-140.64;100.00
7930;BME280;4010;42.698;23.124;2023-04-15T01:45:49;118349.16;;;-140.64;100.00
7930;BME280;4010;42.698;23.124;2023-04-15T01:48:16;118349.16;;;-140.64;100.00
7930;BME280;4010;42.698;23.124;2023-04-15T01:50:43;118349.16;;;-140.64;100.00
7930;BME280;4010;42.698;23.124;2023-04-15T01:53:10;118349.16;;;-140.64;100.00
7930;BME280;4010;42.698;23.124;2023-04-15T01:55:36;118349.16;;;-140.64;100.00
7930;BME280;4010;42.698;23.124;2023-04-15T01:58:03;118349.16;;;-140.64;100.00
7930;BME280;4010;42.698;23.124;2023-04-15T02:00:31;118349.16;;;-140.64;100.00
7930;BME280;4010;42.698;23.124;2023-04-15T02:02:58;118349.16;;;-140.64;100.00
7930;BME280;4010;42.698;23.124;2023-04-15T02:05:25;118349.16;;;-140.64;100.00
7930;BME280;4010;42.698;23.124;2023-04-15T02:07:52;118349.16;;;-140.64;100.00
7930;BME280;4010;42.698;23.124;2023-04-15T02:10:19;118349.16;;;-140.64;100.00
7930;BME280;4010;42.698;23.124;2023-04-15T02:12:46;118349.16;;;-140.64;100.00
7930;BME280;4010;42.698;23.124;2023-04-15T02:15:13;118349.16;;;-140.64;100.00
7930;BME280;4010;42.698;23.124;2023-04-15T02:17:41;118349.16;;;-140.64;100.00
7930;BME280;4010;42.698;23.124;2023-04-15T02:20:10;118349.16;;;-140.64;100.00
7930;BME280;4010;42.698;23.124;2023-04-15T02:22:37;118349.16;;;-140.64;100.00
7930;BME280;4010;42.698;23.124;2023-04-15T02:25:05;118349.16;;;-140.64;100.00
7930;BME280;4010;42.698;23.124;2023-04-15T02:27:32;118349.16;;;-140.64;100.00
7930;BME280;4010;42.698;23.124;2023-04-15T02:29:58;118349.16;;;-140.64;100.00
7930;BME280;4010;42.698;23.124;2023-04-15T02:32:25;118349.16;;;-140.64;100.00
7930;BME280;4010;42.698;23.124;2023-04-15T02:34:54;118349.16;;;-140.64;100.00
7930;BME280;4010;42.698;23.124;2023-04-15T02:37:21;118349.16;;;-140.64;100.00
7930;BME280;4010;42.698;23.124;2023-04-15T02:39:49;118349.16;;;-140.64;100.00
7930;BME280;4010;42.698;23.124;2023-04-15T02:42:15;118349.16;;;-140.64;100.00
7930;BME280;4010;42.698;23.124;2023-04-15T02:44:42;118349.16;;;-140.64;100.00
7930;BME280;4010;42.698;23.124;2023-04-15T02:47:09;118349.16;;;-140.64;100.00
7930;BME280;4010;42.698;23.124;2023-04-15T02:49:36;118349.16;;;-140.64;100.00
7930;BME280;4010;42.698;23.124;2023-04-15T02:52:04;118349.16;;;-140.64;100.00
7930;BME280;4010;42.698;23.124;2023-04-15T02:54:31;118349.16;;;-140.64;100.00
7930;BME280;4010;42.698;23.124;2023-04-15T02:56:58;118349.16;;;-140.64;100.00
7930;BME280;4010;42.698;23.124;2023-04-15T02:59:25;118349.16;;;-140.64;100.00
7930;BME280;4010;42.698;23.124;2023-04-15T03:01:52;118349.16;;;-140.64;100.00
7930;BME280;4010;42.698;23.124;2023-04-15T03:04:20;118349.16;;;-140.64;100.00
7930;BME280;4010;42.698;23.124;2023-04-15T03:06:47;118349.16;;;-140.64;100.00
7930;BME280;4010;42.698;23.124;2023-04-15T03:09:15;118349.16;;;-140.64;100.00
7930;BME280;4010;42.698;23.124;2023-04-15T03:11:42;118349.16;;;-140.64;100.00
7930;BME280;4010;42.698;23.124;2023-04-15T03:14:08;118349.16;;;-140.64;100.00
7930;BME280;4010;42.698;23.124;2023-04-15T03:16:35;118349.16;;;-140.64;100.00
7930;BME280;4010;42.698;23.124;2023-04-15T03:19:02;118349.16;;;-140.64;100.00
7930;BME280;4010;42.698;23.124;2023-04-15T03:21:28;118349.16;;;-140.64;100.00
7930;BME280;4010;42.698;23.124;2023-04-15T03:23:55;118349.16;;;-140.64;100.00
7930;BME280;4010;42.698;23.124;2023-04-15T03:26:25;118349.16;;;-140.64;100.00
7930;BME280;4010;42.698;23.124;2023-04-15T03:28:52;118349.16;;;-140.64;100.00
7930;BME280;4010;42.698;23.124;2023-04-15T03:31:19;118349.16;;;-140.64;100.00
7930;BME280;4010;42.698;23.124;2023-04-15T03:33:46;118349.16;;;-140.64;100.00
7930;BME280;4010;42.698;23.124;2023-04-15T03:36:12;118349.16;;;-140.64;100.00
7930;BME280;4010;42.698;23.124;2023-04-15T03:38:39;118349.16;;;-140.64;100.00
7930;BME280;4010;42.698;23.124;2023-04-15T03:41:06;118349.16;;;-140.64;100.00
7930;BME280;4010;42.698;23.124;2023-04-15T03:43:34;118349.16;;;-140.64;100.00
7930;BME280;4010;42.698;23.124;2023-04-15T03:46:01;118349.16;;;-140.64;100.00
7930;BME280;4010;42.698;23.124;2023-04-15T03:48:27;118349.16;;;-140.64;100.00
7930;BME280;4010;42.698;23.124;2023-04-15T03:50:54;118349.16;;;-140.64;100.00
7930;BME280;4010;42.698;23.124;2023-04-15T03:53:21;118349.16;;;-140.64;100.00
7930;BME280;4010;42.698;23.124;2023-04-15T03:55:48;118349.16;;;-140.64;100.00
7930;BME280;4010;42.698;23.124;2023-04-15T03:58:14;118349.16;;;-140.64;100.00
7930;BME280;4010;42.698;23.124;2023-04-15T04:00:42;118349.16;;;-140.64;100.00
7930;BME280;4010;42.698;23.124;2023-04-15T04:03:09;118349.16;;;-140.64;100.00
7930;BME280;4010;42.698;23.124;2023-04-15T04:05:36;118349.16;;;-140.64;100.00
7930;BME280;4010;42.698;23.124;2023-04-15T04:08:03;118349.16;;;-140.64;100.00
7930;BME280;4010;42.698;23.124;2023-04-15T04:10:30;118349.16;;;-140.64;100.00
7930;BME280;4010;42.698;23.124;2023-04-15T04:12:57;118349.16;;;-140.64;100.00
7930;BME280;4010;42.698;23.124;2023-04-15T04:15:24;118349.16;;;-140.64;100.00
7930;BME280;4010;42.698;23.124;2023-04-15T04:17:52;118349.16;;;-140.64;100.00
7930;BME280;4010;42.698;23.124;2023-04-15T04:20:18;118349.16;;;-140.64;100.00
7930;BME280;4010;42.698;23.124;2023-04-15T04:22:45;118349.16;;;-140.64;100.00
7930;BME280;4010;42.698;23.124;2023-04-15T04:25:12;118349.16;;;-140.64;100.00
7930;BME280;4010;42.698;23.124;2023-04-15T04:27:38;118349.16;;;-140.64;100.00
7930;BME280;4010;42.698;23.124;2023-04-15T04:30:06;118349.16;;;-140.64;100.00
7930;BME280;4010;42.698;23.124;2023-04-15T04:32:33;118349.16;;;-140.64;92.83
7930;BME280;4010;42.698;23.124;2023-04-15T04:35:01;118349.16;;;-140.64;82.74
7930;BME280;4010;42.698;23.124;2023-04-15T04:37:28;118349.16;;;-140.64;75.17
7930;BME280;4010;42.698;23.124;2023-04-15T04:39:54;118349.16;;;-140.64;65.97
7930;BME280;4010;42.698;23.124;2023-04-15T04:42:21;118349.16;;;-140.64;59.50
7930;BME280;4010;42.698;23.124;2023-04-15T04:44:48;118349.16;;;-140.64;59.00
7930;BME280;4010;42.698;23.124;2023-04-15T04:47:15;118349.16;;;-140.64;57.41
7930;BME280;4010;42.698;23.124;2023-04-15T04:49:41;118349.16;;;-140.64;57.89
7930;BME280;4010;42.698;23.124;2023-04-15T04:52:09;118349.16;;;-140.64;56.41
7930;BME280;4010;42.698;23.124;2023-04-15T04:54:36;118349.16;;;-140.64;53.83
7930;BME280;4010;42.698;23.124;2023-04-15T04:57:03;118349.16;;;-140.64;53.68
7930;BME280;4010;42.698;23.124;2023-04-15T04:59:29;118349.16;;;-140.64;50.02
7930;BME280;4010;42.698;23.124;2023-04-15T05:01:56;118349.16;;;-140.64;48.79
7930;BME280;4010;42.698;23.124;2023-04-15T05:04:23;118349.16;;;-140.64;46.90
7930;BME280;4010;42.698;23.124;2023-04-15T05:06:50;118349.16;;;-140.64;46.55
7930;BME280;4010;42.698;23.124;2023-04-15T05:09:18;118349.16;;;-140.64;45.64
7930;BME280;4010;42.698;23.124;2023-04-15T05:11:45;118349.16;;;-140.64;43.88
7930;BME280;4010;42.698;23.124;2023-04-15T05:14:11;118349.16;;;-140.64;42.49
7930;BME280;4010;42.698;23.124;2023-04-15T05:16:38;118349.16;;;-140.64;40.22
7930;BME280;4010;42.698;23.124;2023-04-15T05:19:05;118349.16;;;-140.64;38.48
7930;BME280;4010;42.698;23.124;2023-04-15T05:21:32;118349.16;;;-140.64;39.71
7930;BME280;4010;42.698;23.124;2023-04-15T05:23:58;118349.16;;;-140.64;39.86
7930;BME280;4010;42.698;23.124;2023-04-15T05:26:26;118349.16;;;-140.64;40.50
7930;BME280;4010;42.698;23.124;2023-04-15T05:28:53;118349.16;;;-140.64;40.69
7930;BME280;4010;42.698;23.124;2023-04-15T05:31:20;118349.16;;;-140.64;39.80
7930;BME280;4010;42.698;23.124;2023-04-15T05:33:47;118349.16;;;-140.64;41.11
7930;BME280;4010;42.698;23.124;2023-04-15T05:36:13;118349.16;;;-140.64;42.07
7930;BME280;4010;42.698;23.124;2023-04-15T05:38:40;118349.16;;;-140.64;43.66
7930;BME280;4010;42.698;23.124;2023-04-15T05:41:07;118349.16;;;-140.64;42.61
7930;BME280;4010;42.698;23.124;2023-04-15T05:43:35;118349.16;;;-140.64;43.06
7930;BME280;4010;42.698;23.124;2023-04-15T05:46:02;118349.16;;;-140.64;43.45
7930;BME280;4010;42.698;23.124;2023-04-15T05:48:29;118349.16;;;-140.64;45.22
7930;BME280;4010;42.698;23.124;2023-04-15T05:50:55;118349.16;;;-140.64;45.03
7930;BME280;4010;42.698;23.124;2023-04-15T05:53:22;118349.16;;;-140.64;44.84
7930;BME280;4010;42.698;23.124;2023-04-15T05:55:49;118349.16;;;-140.64;45.27
7930;BME280;4010;42.698;23.124;2023-04-15T05:58:15;118349.16;;;-140.64;44.64
7930;BME280;4010;42.698;23.124;2023-04-15T06:00:44;118349.16;;;-140.64;46.37
7930;BME280;4010;42.698;23.124;2023-04-15T06:03:10;118349.16;;;-140.64;44.44
7930;BME280;4010;42.698;23.124;2023-04-15T06:05:37;118349.16;;;-140.64;46.64
7930;BME280;4010;42.698;23.124;2023-04-15T06:08:05;118349.16;;;-140.64;45.53
7930;BME280;4010;42.698;23.124;2023-04-15T06:10:34;118349.16;;;-140.64;46.79
7930;BME280;4010;42.698;23.124;2023-04-15T06:13:01;118349.16;;;-140.64;46.30
7930;BME280;4010;42.698;23.124;2023-04-15T06:15:28;118349.16;;;-140.64;47.48
7930;BME280;4010;42.698;23.124;2023-04-15T06:17:56;118349.16;;;-140.64;45.29
7930;BME280;4010;42.698;23.124;2023-04-15T06:20:23;118349.16;;;-140.64;45.63
7930;BME280;4010;42.698;23.124;2023-04-15T06:22:50;118349.16;;;-140.64;46.31
7930;BME280;4010;42.698;23.124;2023-04-15T06:25:17;118349.16;;;-140.64;45.65
7930;BME280;4010;42.698;23.124;2023-04-15T06:27:44;118349.16;;;-140.64;47.95
7930;BME280;4010;42.698;23.124;2023-04-15T06:30:11;118349.16;;;-140.64;47.59
7930;BME280;4010;42.698;23.124;2023-04-15T06:32:38;118349.16;;;-140.64;47.37
7930;BME280;4010;42.698;23.124;2023-04-15T06:35:07;118349.16;;;-140.64;47.71
7930;BME280;4010;42.698;23.124;2023-04-15T06:37:34;118349.16;;;-140.64;47.54
7930;BME280;4010;42.698;23.124;2023-04-15T06:40:00;118349.16;;;-140.64;49.24
7930;BME280;4010;42.698;23.124;2023-04-15T06:42:29;118349.16;;;-140.64;51.04
7930;BME280;4010;42.698;23.124;2023-04-15T06:44:56;118349.16;;;-140.64;50.84
7930;BME280;4010;42.698;23.124;2023-04-15T06:47:22;118349.16;;;-140.64;52.32
7930;BME280;4010;42.698;23.124;2023-04-15T06:49:49;118349.16;;;-140.64;51.71
7930;BME280;4010;42.698;23.124;2023-04-15T06:52:17;118349.16;;;-140.64;51.92
7930;BME280;4010;42.698;23.124;2023-04-15T06:54:44;118349.16;;;-140.64;49.53
7930;BME280;4010;42.698;23.124;2023-04-15T06:57:11;118349.16;;;-140.64;50.36
7930;BME280;4010;42.698;23.124;2023-04-15T06:59:37;118349.16;;;-140.64;50.61
7930;BME280;4010;42.698;23.124;2023-04-15T07:02:04;118349.16;;;-140.64;50.93
7930;BME280;4010;42.698;23.124;2023-04-15T07:04:33;118349.16;;;-140.64;52.64
7930;BME280;4010;42.698;23.124;2023-04-15T07:07:00;118349.16;;;-140.64;51.87
7930;BME280;4010;42.698;23.124;2023-04-15T07:09:28;118349.16;;;-140.64;49.08
7930;BME280;4010;42.698;23.124;2023-04-15T07:11:55;118349.16;;;-140.64;50.02
7930;BME280;4010;42.698;23.124;2023-04-15T07:14:21;118349.16;;;-140.64;49.44
7930;BME280;4010;42.698;23.124;2023-04-15T07:16:48;118349.16;;;-140.64;49.12
7930;BME280;4010;42.698;23.124;2023-04-15T07:19:15;118349.16;;;-140.64;47.98
7930;BME280;4010;42.698;23.124;2023-04-15T07:21:41;118349.16;;;-140.64;49.23
7930;BME280;4010;42.698;23.124;2023-04-15T07:24:08;118349.16;;;-140.64;50.05
7930;BME280;4010;42.698;23.124;2023-04-15T07:26:37;118349.16;;;-140.64;46.97
7930;BME280;4010;42.698;23.124;2023-04-15T07:29:03;118349.16;;;-140.64;48.42
7930;BME280;4010;42.698;23.124;2023-04-15T07:31:30;118349.16;;;-140.64;44.80
7930;BME280;4010;42.698;23.124;2023-04-15T07:33:57;118349.16;;;-140.64;45.67
7930;BME280;4010;42.698;23.124;2023-04-15T07:36:24;118349.16;;;-140.64;48.09
7930;BME280;4010;42.698;23.124;2023-04-15T07:38:50;118349.16;;;-140.64;44.53
7930;BME280;4010;42.698;23.124;2023-04-15T07:41:17;118349.16;;;-140.64;44.56
7930;BME280;4010;42.698;23.124;2023-04-15T07:43:46;118349.16;;;-140.64;43.48
7930;BME280;4010;42.698;23.124;2023-04-15T07:46:13;118349.16;;;-140.64;45.96
7930;BME280;4010;42.698;23.124;2023-04-15T07:48:39;118349.16;;;-140.64;45.42
7930;BME280;4010;42.698;23.124;2023-04-15T07:51:07;118349.16;;;-140.64;45.51
7930;BME280;4010;42.698;23.124;2023-04-15T07:53:35;118349.16;;;-140.64;45.27
7930;BME280;4010;42.698;23.124;2023-04-15T07:56:02;118349.16;;;-140.64;46.12
7930;BME280;4010;42.698;23.124;2023-04-15T07:58:30;118349.16;;;-140.64;44.95
7930;BME280;4010;42.698;23.124;2023-04-15T08:00:58;118349.16;;;-140.64;46.25
7930;BME280;4010;42.698;23.124;2023-04-15T08:03:25;118349.16;;;-140.64;45.30
7930;BME280;4010;42.698;23.124;2023-04-15T08:05:51;118349.16;;;-140.64;44.84
7930;BME280;4010;42.698;23.124;2023-04-15T08:08:18;118349.16;;;-140.64;44.63
7930;BME280;4010;42.698;23.124;2023-04-15T08:10:45;118349.16;;;-140.64;49.00
7930;BME280;4010;42.698;23.124;2023-04-15T08:13:12;118349.16;;;-140.64;45.42
7930;BME280;4010;42.698;23.124;2023-04-15T08:15:38;118349.16;;;-140.64;47.18
7930;BME280;4010;42.698;23.124;2023-04-15T08:18:07;118349.16;;;-140.64;47.21
7930;BME280;4010;42.698;23.124;2023-04-15T08:20:33;118349.16;;;-140.64;45.15
7930;BME280;4010;42.698;23.124;2023-04-15T08:23:00;118349.16;;;-140.64;45.09
7930;BME280;4010;42.698;23.124;2023-04-15T08:25:27;118349.16;;;-140.64;45.73
7930;BME280;4010;42.698;23.124;2023-04-15T08:27:55;118349.16;;;-140.64;46.39
7930;BME280;4010;42.698;23.124;2023-04-15T08:30:21;118349.16;;;-140.64;46.69
7930;BME280;4010;42.698;23.124;2023-04-15T08:32:49;118349.16;;;-140.64;45.70
7930;BME280;4010;42.698;23.124;2023-04-15T08:35:17;118349.16;;;-140.64;44.98
7930;BME280;4010;42.698;23.124;2023-04-15T08:37:44;118349.16;;;-140.64;46.10
7930;BME280;4010;42.698;23.124;2023-04-15T08:40:11;118349.16;;;-140.64;49.53
7930;BME280;4010;42.698;23.124;2023-04-15T08:42:41;118349.16;;;-140.64;46.37
7930;BME280;4010;42.698;23.124;2023-04-15T08:45:09;118349.16;;;-140.64;48.02
7930;BME280;4010;42.698;23.124;2023-04-15T08:47:37;118349.16;;;-140.64;45.18
7930;BME280;4010;42.698;23.124;2023-04-15T08:50:08;118349.16;;;-140.64;43.84
7930;BME280;4010;42.698;23.124;2023-04-15T08:52:37;118349.16;;;-140.64;42.40
7930;BME280;4010;42.698;23.124;2023-04-15T08:55:07;118349.16;;;-140.64;44.32
7930;BME280;4010;42.698;23.124;2023-04-15T08:57:35;118349.16;;;-140.64;40.96
7930;BME280;4010;42.698;23.124;2023-04-15T09:00:05;118349.16;;;-140.64;41.27
7930;BME280;4010;42.698;23.124;2023-04-15T09:02:34;118349.16;;;-140.64;41.96
7930;BME280;4010;42.698;23.124;2023-04-15T09:05:00;118349.16;;;-140.64;43.02
7930;BME280;4010;42.698;23.124;2023-04-15T09:07:29;118349.16;;;-140.64;41.17
7930;BME280;4010;42.698;23.124;2023-04-15T09:09:57;118349.16;;;-140.64;42.61
7930;BME280;4010;42.698;23.124;2023-04-15T09:12:24;118349.16;;;-140.64;40.84
7930;BME280;4010;42.698;23.124;2023-04-15T09:14:50;118349.16;;;-140.64;43.38
7930;BME280;4010;42.698;23.124;2023-04-15T09:17:18;118349.16;;;-140.64;40.80
7930;BME280;4010;42.698;23.124;2023-04-15T09:19:46;118349.16;;;-140.64;41.11
7930;BME280;4010;42.698;23.124;2023-04-15T09:22:12;118349.16;;;-140.64;41.67
7930;BME280;4010;42.698;23.124;2023-04-15T09:24:39;118349.16;;;-140.64;42.55
7930;BME280;4010;42.698;23.124;2023-04-15T09:27:09;118349.16;;;-140.64;43.32
7930;BME280;4010;42.698;23.124;2023-04-15T09:29:36;118349.16;;;-140.64;42.40
7930;BME280;4010;42.698;23.124;2023-04-15T09:32:10;118349.16;;;-140.64;41.40
7930;BME280;4010;42.698;23.124;2023-04-15T09:34:37;118349.16;;;-140.64;41.11
7930;BME280;4010;42.698;23.124;2023-04-15T09:37:04;118349.16;;;-140.64;41.09
7930;BME280;4010;42.698;23.124;2023-04-15T09:39:51;118349.16;;;-140.64;39.54
7930;BME280;4010;42.698;23.124;2023-04-15T09:42:22;118349.16;;;-140.64;40.15
7930;BME280;4010;42.698;23.124;2023-04-15T09:44:49;118349.16;;;-140.64;39.35
7930;BME280;4010;42.698;23.124;2023-04-15T09:47:27;118349.16;;;-140.64;37.90
7930;BME280;4010;42.698;23.124;2023-04-15T09:49:54;118349.16;;;-140.64;38.73
7930;BME280;4010;42.698;23.124;2023-04-15T09:52:21;118349.16;;;-140.64;37.46
7930;BME280;4010;42.698;23.124;2023-04-15T09:54:52;118349.16;;;-140.64;38.39
7930;BME280;4010;42.698;23.124;2023-04-15T09:57:19;118349.16;;;-140.64;37.25
7930;BME280;4010;42.698;23.124;2023-04-15T09:59:48;118349.16;;;-140.64;36.73
7930;BME280;4010;42.698;23.124;2023-04-15T10:02:14;118349.16;;;-140.64;37.70
7930;BME280;4010;42.698;23.124;2023-04-15T10:04:44;118349.16;;;-140.64;37.61
7930;BME280;4010;42.698;23.124;2023-04-15T10:07:12;118349.16;;;-140.64;37.28
7930;BME280;4010;42.698;23.124;2023-04-15T10:09:44;118349.16;;;-140.64;38.30
7930;BME280;4010;42.698;23.124;2023-04-15T10:12:12;118349.16;;;-140.64;37.90
7930;BME280;4010;42.698;23.124;2023-04-15T10:14:41;118349.16;;;-140.64;36.51
7930;BME280;4010;42.698;23.124;2023-04-15T10:17:11;118349.16;;;-140.64;37.25
7930;BME280;4010;42.698;23.124;2023-04-15T10:19:39;118349.16;;;-140.64;37.77
7930;BME280;4010;42.698;23.124;2023-04-15T10:22:07;118349.16;;;-140.64;36.82
7930;BME280;4010;42.698;23.124;2023-04-15T10:24:34;118349.16;;;-140.64;36.70
7930;BME280;4010;42.698;23.124;2023-04-15T10:27:04;118349.16;;;-140.64;38.63
7930;BME280;4010;42.698;23.124;2023-04-15T10:29:31;118349.16;;;-140.64;37.81
7930;BME280;4010;42.698;23.124;2023-04-15T10:31:58;118349.16;;;-140.64;37.03
7930;BME280;4010;42.698;23.124;2023-04-15T10:34:28;118349.16;;;-140.64;36.39
7930;BME280;4010;42.698;23.124;2023-04-15T10:36:59;118349.16;;;-140.64;36.44
7930;BME280;4010;42.698;23.124;2023-04-15T10:39:38;118349.16;;;-140.64;37.12
7930;BME280;4010;42.698;23.124;2023-04-15T10:42:06;118349.16;;;-140.64;37.11
7930;BME280;4010;42.698;23.124;2023-04-15T10:44:32;118349.16;;;-140.64;37.65
7930;BME280;4010;42.698;23.124;2023-04-15T10:47:05;118349.16;;;-140.64;36.99
7930;BME280;4010;42.698;23.124;2023-04-15T10:49:42;118349.16;;;-140.64;35.53
7930;BME280;4010;42.698;23.124;2023-04-15T10:52:09;118349.16;;;-140.64;36.40
7930;BME280;4010;42.698;23.124;2023-04-15T10:54:36;118349.16;;;-140.64;36.52
7930;BME280;4010;42.698;23.124;2023-04-15T10:57:08;118349.16;;;-140.64;36.61
7930;BME280;4010;42.698;23.124;2023-04-15T10:59:36;118349.16;;;-140.64;35.39
7930;BME280;4010;42.698;23.124;2023-04-15T11:02:04;118349.16;;;-140.64;35.65
7930;BME280;4010;42.698;23.124;2023-04-15T11:04:51;118349.16;;;-140.64;37.28
7930;BME280;4010;42.698;23.124;2023-04-15T11:07:35;118349.16;;;-140.64;35.66
7930;BME280;4010;42.698;23.124;2023-04-15T11:10:02;118349.16;;;-140.64;36.15
7930;BME280;4010;42.698;23.124;2023-04-15T11:12:36;118349.16;;;-140.64;36.08
7930;BME280;4010;42.698;23.124;2023-04-15T11:15:25;118349.16;;;-140.64;37.06
7930;BME280;4010;42.698;23.124;2023-04-15T11:17:52;118349.16;;;-140.64;37.32
7930;BME280;4010;42.698;23.124;2023-04-15T11:20:20;118349.16;;;-140.64;37.42
7930;BME280;4010;42.698;23.124;2023-04-15T11:22:47;118349.16;;;-140.64;35.39
7930;BME280;4010;42.698;23.124;2023-04-15T11:25:22;118349.16;;;-140.64;36.53
7930;BME280;4010;42.698;23.124;2023-04-15T11:27:49;118349.16;;;-140.64;36.44
7930;BME280;4010;42.698;23.124;2023-04-15T11:30:18;118349.16;;;-140.64;35.11
7930;BME280;4010;42.698;23.124;2023-04-15T11:32:46;118349.16;;;-140.64;34.75
7930;BME280;4010;42.698;23.124;2023-04-15T11:35:13;118349.16;;;-140.64;34.31
7930;BME280;4010;42.698;23.124;2023-04-15T11:37:41;118349.16;;;-140.64;33.98
7930;BME280;4010;42.698;23.124;2023-04-15T11:40:08;118349.16;;;-140.64;34.15
7930;BME280;4010;42.698;23.124;2023-04-15T11:42:35;118349.16;;;-140.64;33.76
7930;BME280;4010;42.698;23.124;2023-04-15T11:45:06;118349.16;;;-140.64;33.22
7930;BME280;4010;42.698;23.124;2023-04-15T11:47:33;118349.16;;;-140.64;33.96
7930;BME280;4010;42.698;23.124;2023-04-15T11:50:13;118349.16;;;-140.64;33.89
7930;BME280;4010;42.698;23.124;2023-04-15T11:52:51;118349.16;;;-140.64;32.01
7930;BME280;4010;42.698;23.124;2023-04-15T11:55:18;118349.16;;;-140.64;33.00
7930;BME280;4010;42.698;23.124;2023-04-15T11:57:45;118349.16;;;-140.64;34.25
7930;BME280;4010;42.698;23.124;2023-04-15T12:00:12;118349.16;;;-140.64;33.97
7930;BME280;4010;42.698;23.124;2023-04-15T12:02:39;118349.16;;;-140.64;33.93
7930;BME280;4010;42.698;23.124;2023-04-15T12:05:08;118349.16;;;-140.64;32.19
7930;BME280;4010;42.698;23.124;2023-04-15T12:07:58;118349.16;;;-140.64;32.01
7930;BME280;4010;42.698;23.124;2023-04-15T12:10:25;118349.16;;;-140.64;34.21
7930;BME280;4010;42.698;23.124;2023-04-15T12:12:52;118349.16;;;-140.64;34.22
7930;BME280;4010;42.698;23.124;2023-04-15T12:15:20;118349.16;;;-140.64;33.65
7930;BME280;4010;42.698;23.124;2023-04-15T12:17:47;118349.16;;;-140.64;32.92
7930;BME280;4010;42.698;23.124;2023-04-15T12:20:20;118349.16;;;-140.64;34.00
7930;BME280;4010;42.698;23.124;2023-04-15T12:22:47;118349.16;;;-140.64;32.40
7930;BME280;4010;42.698;23.124;2023-04-15T12:25:15;118349.16;;;-140.64;33.29
7930;BME280;4010;42.698;23.124;2023-04-15T12:27:50;118349.16;;;-140.64;33.60
7930;BME280;4010;42.698;23.124;2023-04-15T12:30:17;118349.16;;;-140.64;33.02
7930;BME280;4010;42.698;23.124;2023-04-15T12:32:44;118349.16;;;-140.64;32.39
7930;BME280;4010;42.698;23.124;2023-04-15T12:35:12;118349.16;;;-140.64;33.55
7930;BME280;4010;42.698;23.124;2023-04-15T12:37:39;118349.16;;;-140.64;32.26
7930;BME280;4010;42.698;23.124;2023-04-15T12:40:07;118349.16;;;-140.64;31.41